Bisbee Douglas International Airport Douglas Bisbee US
ICAO: KDUG
IATA: DUG
Category: Medium
Scheduled Services: No

Elevation: 4154 ft
TransAlt. 18000 ft.

Airport Communications:
ASOS:119.275
PRESCOTT RDO:122.4
CTAF/UNICOM:123

KDUG Zoom In..

If you have problems with the map follow the link
https://www.worldairports.se/pages/airport.php?
ICAO=KDUG

Runways:

(A) RW 08 length 4966 ft width 60 ft
---- / hdg 78

(B) RW 17 length 6430 ft width 100 ft
---- / hdg 168

(C) RW 26 length 4966 ft width 60 ft
---- / hdg 258

(D) RW 35 length 6430 ft width 100 ft
---- / hdg 348

Location; KDUG
Day. 22 / Time. 16.35 Zulu
* Altimeter: 29.79
* Temperature: 05° c. 41°f.
* Wind from: 170° Speed 21 kn with Gusts up to 26 kn.
Dewpoint: 04° c.
Visibility: 9 Statute Miles.
Clouds: Scattered 1500 ft.
Clouds: Broken 1900 ft.
Clouds: Overcast 2900 ft.
Conditions: Light Rain.

KDUG 221635Z AUTO 17021G26KT 9SM -RA SCT015 BKN019 OVC029 05/04 A2979 RMK AO2 PK WND 17034/1559 RAB04 P0002 T00500039


Wind From 170°
Speed 21 kn.

 
 
jpsmedia.com for Web Design worldairports.se 2019   terms of use